createdAt,value
2022-10-31T00:00:59.027Z,94536.34
2022-10-31T00:03:27.151Z,94534.97
2022-10-31T00:05:54.951Z,94537.69
2022-10-31T00:08:22.498Z,94540.41
2022-10-31T00:10:50.102Z,94534.16
2022-10-31T00:13:17.758Z,94536.03
2022-10-31T00:15:45.387Z,94529.25
2022-10-31T00:18:14.314Z,94528.44
2022-10-31T00:20:41.859Z,94533.88
2022-10-31T00:23:09.477Z,94530.31
2022-10-31T00:25:37.612Z,94523.25
2022-10-31T00:28:05.333Z,94528.69
2022-10-31T00:30:32.980Z,94528.69
2022-10-31T00:33:00.843Z,94528.97
2022-10-31T00:35:30.118Z,94530.06
2022-10-31T00:37:57.675Z,94536.28
2022-10-31T00:40:25.267Z,94536.56
2022-10-31T00:42:52.839Z,94537.63
2022-10-31T00:45:20.762Z,94537.06
2022-10-31T00:47:48.300Z,94536.28
2022-10-31T00:50:15.877Z,94539.78
2022-10-31T00:52:44.764Z,94537.34
2022-10-31T00:55:12.312Z,94548.22
2022-10-31T00:57:39.844Z,94542.78
2022-10-31T01:00:08.547Z,94540.63
2022-10-31T01:02:36.291Z,94541.72
2022-10-31T01:05:04.117Z,94537.34
2022-10-31T01:07:31.672Z,94536.53
2022-10-31T01:10:00.570Z,94534.91
2022-10-31T01:12:28.117Z,94535.16
2022-10-31T01:14:55.739Z,94534.59
2022-10-31T01:17:23.261Z,94522.94
2022-10-31T01:19:50.814Z,94524.81
2022-10-31T01:22:18.395Z,94531.09
2022-10-31T01:24:45.947Z,94531.34
2022-10-31T01:27:14.904Z,94527.81
2022-10-31T01:29:42.408Z,94530.78
2022-10-31T01:32:10.020Z,94528.63
2022-10-31T01:34:37.564Z,94525.91
2022-10-31T01:37:05.199Z,94526.72
2022-10-31T01:39:32.753Z,94539.22
2022-10-31T01:42:00.444Z,94521.31
2022-10-31T01:44:53.449Z,94526.72
2022-10-31T01:47:22.859Z,94519.66
2022-10-31T01:49:51.365Z,94518.59
2022-10-31T01:52:23.295Z,94515.03
2022-10-31T01:54:53.527Z,94517.75
2022-10-31T01:57:21.115Z,94515.31
2022-10-31T01:59:51.949Z,94511.78
2022-10-31T02:02:19.655Z,94517.22
2022-10-31T02:04:47.556Z,94510.16
2022-10-31T02:07:16.267Z,94516.38
2022-10-31T02:09:43.784Z,94514.75
2022-10-31T02:12:11.476Z,94510.41
2022-10-31T02:14:39.008Z,94516.09
2022-10-31T02:17:07.932Z,94514.47
2022-10-31T02:19:37.849Z,94518.00
2022-10-31T02:22:08.476Z,94514.19
2022-10-31T02:24:45.459Z,94515.03
2022-10-31T02:27:21.291Z,94510.41
2022-10-31T02:30:10.159Z,94512.31
2022-10-31T02:33:16.681Z,94518.81
2022-10-31T02:35:51.435Z,94516.09
2022-10-31T02:38:25.986Z,94513.66
2022-10-31T02:40:56.300Z,94506.59
2022-10-31T02:43:27.904Z,94501.41
2022-10-31T02:45:57.438Z,94504.13
2022-10-31T02:48:28.468Z,94504.13
2022-10-31T02:50:57.751Z,94504.13
2022-10-31T02:53:25.276Z,94509.00
2022-10-31T02:56:00.804Z,94499.78
2022-10-31T02:58:29.643Z,94492.72
2022-10-31T03:01:21.671Z,94501.69
2022-10-31T03:03:56.827Z,94496.50
2022-10-31T03:06:26.832Z,94495.72
2022-10-31T03:08:57.687Z,94500.31
2022-10-31T03:11:26.015Z,94502.22
2022-10-31T03:13:56.291Z,94504.09
2022-10-31T03:16:25.840Z,94512.25
2022-10-31T03:18:56.732Z,94508.97
2022-10-31T03:21:25.247Z,94507.34
2022-10-31T03:23:52.792Z,94506.53
2022-10-31T03:26:20.307Z,94506.53
2022-10-31T03:28:49.546Z,94499.47
2022-10-31T03:31:18.952Z,94500.00
2022-10-31T03:33:46.526Z,94501.66
2022-10-31T03:36:16.277Z,94507.06
2022-10-31T03:38:43.839Z,94507.91
2022-10-31T03:41:13.201Z,94508.97
2022-10-31T03:43:43.819Z,94519.84
2022-10-31T03:46:11.407Z,94518.22
2022-10-31T03:48:38.960Z,94520.94
2022-10-31T03:51:08.506Z,94519.00
2022-10-31T03:53:40.522Z,94515.50
2022-10-31T03:56:11.452Z,94508.44
2022-10-31T03:58:40.501Z,94517.38
2022-10-31T04:01:08.315Z,94519.28
2022-10-31T04:03:36.507Z,94507.06
2022-10-31T04:06:06.544Z,94508.94
2022-10-31T04:08:35.521Z,94511.66
2022-10-31T04:11:04.466Z,94508.13
2022-10-31T04:13:32.808Z,94519.78
2022-10-31T04:16:00.471Z,94504.59
2022-10-31T04:18:28.187Z,94507.31
2022-10-31T04:21:02.028Z,94504.59
2022-10-31T04:23:29.578Z,94507.31
2022-10-31T04:25:57.113Z,94494.00
2022-10-31T04:28:26.063Z,94497.53
2022-10-31T04:30:53.680Z,94495.91
2022-10-31T04:33:21.275Z,94486.97
2022-10-31T04:35:48.876Z,94495.09
2022-10-31T04:38:16.399Z,94490.75
2022-10-31T04:40:43.991Z,94491.56
2022-10-31T04:43:11.641Z,94492.63
2022-10-31T04:45:40.612Z,94483.41
2022-10-31T04:48:08.183Z,94495.09
2022-10-31T04:50:35.778Z,94488.84
2022-10-31T04:53:03.398Z,94483.41
2022-10-31T04:55:30.951Z,94495.34
2022-10-31T04:57:59.058Z,94484.50
2022-10-31T05:00:26.874Z,94486.41
2022-10-31T05:02:56.580Z,94480.16
2022-10-31T05:05:24.987Z,94484.78
2022-10-31T05:07:52.736Z,94488.28
2022-10-31T05:10:21.255Z,94480.16
2022-10-31T05:12:49.475Z,94481.22
2022-10-31T05:15:17.519Z,94476.63
2022-10-31T05:17:45.240Z,94483.94
2022-10-31T05:20:14.521Z,94478.50
2022-10-31T05:22:44.476Z,94480.16
2022-10-31T05:25:12.162Z,94473.09
2022-10-31T05:27:41.314Z,94473.91
2022-10-31T05:30:09.563Z,94466.81
2022-10-31T05:32:40.761Z,94463.31
2022-10-31T05:35:09.864Z,94465.19
2022-10-31T05:37:38.941Z,94463.31
2022-10-31T05:40:08.593Z,94454.34
2022-10-31T05:42:36.263Z,94466.03
2022-10-31T05:45:03.951Z,94456.25
2022-10-31T05:47:31.486Z,94460.03
2022-10-31T05:49:59.087Z,94453.53
2022-10-31T05:52:26.606Z,94452.72
2022-10-31T05:54:55.523Z,94448.09
2022-10-31T05:57:23.130Z,94458.13
2022-10-31T05:59:55.115Z,94456.50
2022-10-31T06:02:23.014Z,94458.13
2022-10-31T06:04:50.690Z,94452.72
2022-10-31T06:07:18.354Z,94457.63
2022-10-31T06:09:45.884Z,94457.09
2022-10-31T06:12:14.830Z,94459.53
2022-10-31T06:14:42.351Z,94453.31
2022-10-31T06:17:10.290Z,94454.63
2022-10-31T06:19:37.927Z,94445.13
2022-10-31T06:22:05.641Z,94450.28
2022-10-31T06:24:33.191Z,94442.97
2022-10-31T06:27:00.774Z,94457.63
2022-10-31T06:29:29.747Z,94456.25
2022-10-31T06:31:57.289Z,94451.91
2022-10-31T06:34:24.912Z,94449.19
2022-10-31T06:36:52.489Z,94461.94
2022-10-31T06:39:19.998Z,94455.69
2022-10-31T06:41:49.246Z,94453.00
2022-10-31T06:44:16.818Z,94455.69
2022-10-31T06:46:45.775Z,94461.13
2022-10-31T06:49:13.336Z,94457.84
2022-10-31T06:51:40.959Z,94462.44
2022-10-31T06:54:08.537Z,94456.19
2022-10-31T06:56:36.158Z,94467.03
2022-10-31T06:59:03.757Z,94463.50
2022-10-31T07:01:31.431Z,94464.31
2022-10-31T07:04:00.500Z,94462.44
2022-10-31T07:06:28.057Z,94465.97
2022-10-31T07:08:55.643Z,94463.25
2022-10-31T07:11:23.238Z,94460.31
2022-10-31T07:13:50.935Z,94466.56
2022-10-31T07:16:18.526Z,94477.97
2022-10-31T07:18:46.108Z,94472.53
2022-10-31T07:21:15.004Z,94466.28
2022-10-31T07:23:42.648Z,94466.28
2022-10-31T07:26:10.436Z,94466.03
2022-10-31T07:28:38.033Z,94468.75
2022-10-31T07:31:05.750Z,94469.81
2022-10-31T07:33:33.314Z,94472.25
2022-10-31T07:36:00.910Z,94461.69
2022-10-31T07:38:29.943Z,94469.53
2022-10-31T07:40:57.526Z,94474.72
2022-10-31T07:43:25.442Z,94476.34
2022-10-31T07:45:53.549Z,94468.22
2022-10-31T07:48:21.207Z,94463.31
2022-10-31T07:50:48.759Z,94463.88
2022-10-31T07:53:16.401Z,94466.59
2022-10-31T07:55:45.360Z,94459.28
2022-10-31T07:58:13.779Z,94465.25
2022-10-31T08:00:42.931Z,94466.09
2022-10-31T08:03:11.267Z,94462.53
2022-10-31T08:05:38.841Z,94462.28
2022-10-31T08:08:06.719Z,94460.38
2022-10-31T08:10:34.381Z,94460.38
2022-10-31T08:13:04.554Z,94455.78
2022-10-31T08:15:32.256Z,94460.13
2022-10-31T08:18:00.272Z,94456.31
2022-10-31T08:20:28.151Z,94451.69
2022-10-31T08:22:57.136Z,94452.53
2022-10-31T08:25:24.935Z,94454.16
2022-10-31T08:27:53.244Z,94441.41
2022-10-31T08:30:22.214Z,94444.13
2022-10-31T08:32:49.830Z,94444.13
2022-10-31T08:35:17.394Z,94443.03
2022-10-31T08:37:44.948Z,94435.69
2022-10-31T08:40:14.024Z,94437.34
2022-10-31T08:42:41.622Z,94438.16
2022-10-31T08:45:09.719Z,94438.97
2022-10-31T08:47:38.660Z,94430.81
2022-10-31T08:50:06.856Z,94420.25
2022-10-31T08:53:03.070Z,94431.66
2022-10-31T08:55:22.413Z,94430.81
2022-10-31T08:57:50.013Z,94428.09
2022-10-31T09:00:17.913Z,94426.22
2022-10-31T09:02:46.855Z,94429.72
2022-10-31T09:05:14.594Z,94423.25
2022-10-31T09:07:42.170Z,94426.75
2022-10-31T09:10:10.099Z,94419.44
2022-10-31T09:12:37.645Z,94417.53
2022-10-31T09:15:07.378Z,94405.88
2022-10-31T09:17:35.011Z,94407.50
2022-10-31T09:20:04.053Z,94409.94
2022-10-31T09:22:31.720Z,94405.34
2022-10-31T09:24:59.288Z,94408.06
2022-10-31T09:27:26.855Z,94406.97
2022-10-31T09:29:54.450Z,94396.09
2022-10-31T09:32:22.166Z,94398.00
2022-10-31T09:34:49.733Z,94397.75
2022-10-31T09:37:18.957Z,94392.56
2022-10-31T09:39:46.520Z,94392.56
2022-10-31T09:42:31.415Z,94389.84
2022-10-31T09:45:02.776Z,94390.69
2022-10-31T09:47:36.716Z,94388.75
2022-10-31T09:50:13.306Z,94396.09
2022-10-31T09:52:48.177Z,94388.75
2022-10-31T09:55:17.247Z,94384.41
2022-10-31T09:57:44.870Z,94387.13
2022-10-31T10:00:17.435Z,94382.53
2022-10-31T10:02:46.841Z,94383.63
2022-10-31T10:05:15.107Z,94374.66
2022-10-31T10:07:48.084Z,94382.53
2022-10-31T10:10:18.153Z,94381.69
2022-10-31T10:13:02.167Z,94379.81
2022-10-31T10:15:45.214Z,94377.09
2022-10-31T10:18:19.938Z,94374.66
2022-10-31T10:20:55.096Z,94370.03
2022-10-31T10:23:38.130Z,94370.03
2022-10-31T10:26:11.321Z,94365.41
2022-10-31T10:28:40.856Z,94361.06
2022-10-31T10:31:09.903Z,94362.69
2022-10-31T10:33:38.886Z,94359.19
2022-10-31T10:36:07.579Z,94358.09
2022-10-31T10:38:37.801Z,94352.41
2022-10-31T10:41:07.097Z,94349.41
2022-10-31T10:43:35.046Z,94356.47
2022-10-31T10:46:39.731Z,94351.88
2022-10-31T10:49:13.928Z,94346.16
2022-10-31T10:54:44.581Z,94343.19
2022-10-31T10:57:19.015Z,94347.78
2022-10-31T10:59:47.036Z,94344.00
2022-10-31T11:02:18.966Z,94338.56
2022-10-31T11:04:46.722Z,94333.94
2022-10-31T11:07:14.301Z,94329.34
2022-10-31T11:09:43.280Z,94330.16
2022-10-31T11:12:11.793Z,94325.00
2022-10-31T11:14:46.052Z,94330.16
2022-10-31T11:17:22.251Z,94321.19
2022-10-31T11:19:49.836Z,94326.63
2022-10-31T11:22:18.723Z,94322.00
2022-10-31T11:24:47.923Z,94325.81
2022-10-31T11:27:17.354Z,94321.19
2022-10-31T11:29:44.939Z,94323.91
2022-10-31T11:32:20.959Z,94317.66
2022-10-31T11:34:51.273Z,94314.13
2022-10-31T11:37:20.598Z,94317.41
2022-10-31T11:39:54.297Z,94313.06
2022-10-31T11:42:23.928Z,94307.34
2022-10-31T11:44:51.928Z,94311.69
2022-10-31T11:47:20.091Z,94312.50
2022-10-31T11:49:50.368Z,94301.66
2022-10-31T11:52:19.747Z,94301.66
2022-10-31T11:54:50.522Z,94301.66
2022-10-31T11:57:26.075Z,94303.28
2022-10-31T11:59:54.499Z,94297.59
2022-10-31T12:02:22.281Z,94295.66
2022-10-31T12:04:52.764Z,94293.78
2022-10-31T12:07:20.331Z,94290.78
2022-10-31T12:09:49.320Z,94288.88
2022-10-31T12:12:31.501Z,94286.97
2022-10-31T12:15:06.161Z,94286.97
2022-10-31T12:17:38.380Z,94285.09
2022-10-31T12:20:10.582Z,94283.16
2022-10-31T12:22:42.859Z,94282.38
2022-10-31T12:25:23.936Z,94275.03
2022-10-31T12:28:12.254Z,94272.31
2022-10-31T12:30:48.923Z,94265.25
2022-10-31T12:33:25.054Z,94264.44
2022-10-31T12:35:57.240Z,94262.53
2022-10-31T12:38:51.806Z,94256.28
2022-10-31T12:41:30.883Z,94255.47
2022-10-31T12:44:00.367Z,94252.75
2022-10-31T12:46:37.451Z,94247.31
2022-10-31T12:49:19.397Z,94240.25
2022-10-31T12:51:51.729Z,94238.63
2022-10-31T12:54:33.043Z,94236.75
2022-10-31T12:57:05.319Z,94232.41
2022-10-31T12:59:34.117Z,94235.91
2022-10-31T13:02:03.366Z,94231.56
2022-10-31T13:04:37.476Z,94226.97
2022-10-31T13:07:08.649Z,94224.53
2022-10-31T13:09:38.874Z,94226.41
2022-10-31T13:12:10.379Z,94228.03
2022-10-31T13:14:40.155Z,94220.19
2022-10-31T13:17:07.707Z,94226.41
2022-10-31T13:19:41.583Z,94217.47
2022-10-31T13:22:10.845Z,94214.75
2022-10-31T13:24:40.467Z,94218.00
2022-10-31T13:27:15.652Z,94210.94
2022-10-31T13:29:46.032Z,94206.31
2022-10-31T13:32:14.071Z,94203.59
2022-10-31T13:34:44.550Z,94203.34
2022-10-31T13:37:25.958Z,94208.75
2022-10-31T13:40:04.684Z,94202.53
2022-10-31T13:42:42.443Z,94199.53
2022-10-31T13:45:17.232Z,94196.00
2022-10-31T13:47:44.895Z,94187.03
2022-10-31T13:50:23.274Z,94190.59
2022-10-31T13:52:50.867Z,94190.59
2022-10-31T13:55:37.398Z,94182.44
2022-10-31T13:58:07.240Z,94183.22
2022-10-31T14:00:36.059Z,94179.72
2022-10-31T14:03:05.101Z,94178.88
2022-10-31T14:05:33.966Z,94180.81
2022-10-31T14:08:03.643Z,94173.72
2022-10-31T14:10:33.085Z,94179.97
2022-10-31T14:13:07.972Z,94185.41
2022-10-31T14:15:35.683Z,94176.44
2022-10-31T14:18:06.397Z,94169.13
2022-10-31T14:20:39.314Z,94175.63
2022-10-31T14:23:36.443Z,94172.09
2022-10-31T14:26:34.633Z,94165.88
2022-10-31T14:29:04.705Z,94171.28
2022-10-31T14:31:36.613Z,94164.78
2022-10-31T14:34:17.397Z,94161.22
2022-10-31T14:36:49.062Z,94150.38
2022-10-31T14:39:19.559Z,94151.19
2022-10-31T14:41:54.660Z,94147.94
2022-10-31T14:44:40.608Z,94151.47
2022-10-31T14:47:12.911Z,94147.94
2022-10-31T14:49:52.968Z,94152.28
2022-10-31T14:52:20.634Z,94147.13
2022-10-31T14:54:51.235Z,94141.69
2022-10-31T14:57:21.033Z,94147.94
2022-10-31T14:59:51.089Z,94149.03
2022-10-31T15:02:20.769Z,94140.88
2022-10-31T15:04:48.500Z,94151.75
2022-10-31T15:07:21.822Z,94146.31
2022-10-31T15:09:57.676Z,94151.75
2022-10-31T15:12:26.992Z,94147.13
2022-10-31T15:14:55.997Z,94143.59
2022-10-31T15:17:23.737Z,94140.06
2022-10-31T15:19:51.456Z,94138.97
2022-10-31T15:22:19.992Z,94134.63
2022-10-31T15:24:47.573Z,94136.56
2022-10-31T15:27:17.256Z,94137.34
2022-10-31T15:29:51.339Z,94141.97
2022-10-31T15:32:23.581Z,94138.44
2022-10-31T15:34:51.591Z,94138.44
2022-10-31T15:37:19.787Z,94137.63
2022-10-31T15:39:48.078Z,94130.56
2022-10-31T15:42:19.454Z,94132.22
2022-10-31T15:44:46.995Z,94127.84
2022-10-31T15:47:17.554Z,94125.94
2022-10-31T15:49:49.982Z,94119.69
2022-10-31T15:52:19.288Z,94117.53
2022-10-31T15:54:49.573Z,94125.69
2022-10-31T15:57:17.112Z,94124.06
2022-10-31T15:59:47.048Z,94124.88
2022-10-31T16:02:15.451Z,94128.38
2022-10-31T16:04:52.415Z,94125.69
2022-10-31T16:07:23.287Z,94116.72
2022-10-31T16:09:52.689Z,94112.09
2022-10-31T16:12:22.616Z,94115.09
2022-10-31T16:14:51.016Z,94117.00
2022-10-31T16:17:20.395Z,94111.56
2022-10-31T16:19:52.896Z,94117.25
2022-10-31T16:22:25.858Z,94127.56
2022-10-31T16:24:56.029Z,94128.97
2022-10-31T16:27:26.626Z,94134.38
2022-10-31T16:29:54.228Z,94133.81
2022-10-31T16:32:53.428Z,94125.16
2022-10-31T16:35:27.040Z,94125.69
2022-10-31T16:37:54.695Z,94121.34
2022-10-31T16:40:22.562Z,94127.88
2022-10-31T16:42:50.800Z,94128.13
2022-10-31T16:45:19.691Z,94123.78
2022-10-31T16:47:47.324Z,94127.59
2022-10-31T16:50:16.442Z,94128.69
2022-10-31T16:53:08.409Z,94128.94
2022-10-31T16:55:35.849Z,94135.47
2022-10-31T16:58:04.081Z,94129.50
2022-10-31T17:00:31.743Z,94127.31
2022-10-31T17:02:59.348Z,94133.59
2022-10-31T17:05:30.073Z,94143.06
2022-10-31T17:07:59.261Z,94141.16
2022-10-31T17:10:27.146Z,94135.47
2022-10-31T17:12:54.767Z,94134.66
2022-10-31T17:15:25.435Z,94138.47
2022-10-31T17:17:53.171Z,94119.97
2022-10-31T17:20:21.827Z,94116.19
2022-10-31T17:22:49.438Z,94119.97
2022-10-31T17:25:19.273Z,94119.19
2022-10-31T17:27:47.468Z,94114.03
2022-10-31T17:30:15.436Z,94121.09
2022-10-31T17:32:43.042Z,94123.25
2022-10-31T17:35:11.052Z,94125.16
2022-10-31T17:37:38.605Z,94126.78
2022-10-31T17:40:07.870Z,94124.63
2022-10-31T17:42:36.895Z,94132.50
2022-10-31T17:45:04.992Z,94133.03
2022-10-31T17:47:32.632Z,94131.94
2022-10-31T17:50:00.256Z,94127.06
2022-10-31T17:52:27.839Z,94130.59
2022-10-31T17:54:55.481Z,94127.88
2022-10-31T17:57:23.105Z,94125.16
2022-10-31T17:59:52.117Z,94126.78
2022-10-31T18:02:19.738Z,94125.97
2022-10-31T18:04:47.356Z,94121.09
2022-10-31T18:07:19.094Z,94125.72
2022-10-31T18:09:47.571Z,94119.19
2022-10-31T18:12:15.379Z,94119.19
2022-10-31T18:14:48.128Z,94129.22
2022-10-31T18:17:17.471Z,94121.91
2022-10-31T18:19:45.715Z,94119.19
2022-10-31T18:22:13.453Z,94125.41
2022-10-31T18:24:41.041Z,94128.97
2022-10-31T18:27:08.596Z,94124.63
2022-10-31T18:29:36.180Z,94122.69
2022-10-31T18:32:09.020Z,94125.41
2022-10-31T18:34:38.344Z,94120.00
2022-10-31T18:37:05.882Z,94123.53
2022-10-31T18:39:33.478Z,94120.00
2022-10-31T18:42:01.123Z,94128.13
2022-10-31T18:44:28.709Z,94133.31
2022-10-31T18:46:56.305Z,94132.47
2022-10-31T18:49:23.880Z,94131.69
2022-10-31T18:51:52.783Z,94121.63
2022-10-31T18:54:20.698Z,94120.53
2022-10-31T18:56:48.725Z,94115.09
2022-10-31T18:59:16.769Z,94109.94
2022-10-31T19:01:44.577Z,94113.47
2022-10-31T19:04:12.284Z,94110.47
2022-10-31T19:06:40.095Z,94108.00
2022-10-31T19:09:09.900Z,94109.34
2022-10-31T19:11:38.002Z,94105.81
2022-10-31T19:14:06.379Z,94105.53
2022-10-31T19:16:33.992Z,94106.03
2022-10-31T19:19:01.660Z,94114.19
2022-10-31T19:21:30.442Z,94104.91
2022-10-31T19:23:58.174Z,94095.41
2022-10-31T19:26:27.181Z,94098.13
2022-10-31T19:28:55.544Z,94103.28
2022-10-31T19:31:23.358Z,94099.47
2022-10-31T19:33:51.063Z,94101.09
2022-10-31T19:36:19.520Z,94094.31
2022-10-31T19:38:47.853Z,94089.44
2022-10-31T19:41:16.370Z,94096.25
2022-10-31T19:43:45.402Z,94082.41
2022-10-31T19:46:22.021Z,94090.31
2022-10-31T19:48:50.204Z,94087.84
2022-10-31T19:51:19.071Z,94082.19
2022-10-31T19:53:47.067Z,94089.75
2022-10-31T19:56:15.867Z,94083.78
2022-10-31T19:58:44.865Z,94089.53
2022-10-31T20:01:13.341Z,94085.44
2022-10-31T20:03:41.931Z,94090.34
2022-10-31T20:06:12.284Z,94091.44
2022-10-31T20:08:39.998Z,94093.63
2022-10-31T20:11:07.616Z,94094.69
2022-10-31T20:13:35.190Z,94101.50
2022-10-31T20:16:05.597Z,94100.97
2022-10-31T20:18:33.237Z,94108.28
2022-10-31T20:21:04.969Z,94111.56
2022-10-31T20:23:32.936Z,94117.00
2022-10-31T20:26:00.539Z,94109.94
2022-10-31T20:28:28.230Z,94108.31
2022-10-31T20:30:55.784Z,94108.56
2022-10-31T20:33:24.768Z,94100.97
2022-10-31T20:35:52.408Z,94111.84
2022-10-31T20:38:19.973Z,94107.75
2022-10-31T20:40:47.668Z,94110.47
2022-10-31T20:43:16.393Z,94104.50
2022-10-31T20:45:43.982Z,94108.06
2022-10-31T20:48:11.559Z,94107.22
2022-10-31T20:50:40.690Z,94106.13
2022-10-31T20:53:08.631Z,94111.81
2022-10-31T20:55:36.282Z,94106.41
2022-10-31T20:58:03.835Z,94111.03
2022-10-31T21:00:31.400Z,94113.75
2022-10-31T21:02:59.173Z,94105.06
2022-10-31T21:05:27.019Z,94109.38
2022-10-31T21:07:55.971Z,94106.97
2022-10-31T21:10:23.603Z,94106.97
2022-10-31T21:12:51.203Z,94112.41
2022-10-31T21:15:18.863Z,94112.94
2022-10-31T21:17:46.449Z,94117.56
2022-10-31T21:20:14.309Z,94111.31
2022-10-31T21:22:41.939Z,94115.09
2022-10-31T21:25:11.096Z,94115.38
2022-10-31T21:27:38.732Z,94111.06
2022-10-31T21:30:07.368Z,94098.03
2022-10-31T21:32:34.899Z,94111.03
2022-10-31T21:35:02.419Z,94106.69
2022-10-31T21:37:29.976Z,94093.13
2022-10-31T21:39:57.668Z,94095.31
2022-10-31T21:42:26.613Z,94103.44
2022-10-31T21:44:54.271Z,94098.56
2022-10-31T21:47:21.892Z,94089.34
2022-10-31T21:49:49.450Z,94094.22
2022-10-31T21:52:16.967Z,94091.50
2022-10-31T21:54:43.539Z,94084.72
2022-10-31T21:57:11.169Z,94082.81
2022-10-31T21:59:41.246Z,94094.50
2022-10-31T22:02:10.147Z,94087.16
2022-10-31T22:04:37.770Z,94087.72
2022-10-31T22:07:05.394Z,94093.13
2022-10-31T22:09:32.927Z,94084.47
2022-10-31T22:12:01.248Z,94090.69
2022-10-31T22:14:28.960Z,94080.66
2022-10-31T22:16:57.992Z,94085.78
2022-10-31T22:19:25.588Z,94085.78
2022-10-31T22:21:53.151Z,94085.00
2022-10-31T22:24:20.956Z,94095.84
2022-10-31T22:26:48.533Z,94095.56
2022-10-31T22:29:17.156Z,94092.06
2022-10-31T22:31:45.606Z,94088.25
2022-10-31T22:34:14.780Z,94086.34
2022-10-31T22:36:42.581Z,94080.91
2022-10-31T22:39:10.668Z,94084.44
2022-10-31T22:41:38.824Z,94079.00
2022-10-31T22:44:06.648Z,94085.53
2022-10-31T22:46:35.176Z,94085.25
2022-10-31T22:49:04.280Z,94089.59
2022-10-31T22:51:33.902Z,94085.53
2022-10-31T22:54:01.494Z,94084.72
2022-10-31T22:56:30.212Z,94089.34
2022-10-31T22:58:58.172Z,94100.19
2022-10-31T23:01:26.575Z,94096.38
2022-10-31T23:03:54.275Z,94100.19
2022-10-31T23:06:23.103Z,94105.63
2022-10-31T23:08:52.166Z,94126.25
2022-10-31T23:11:20.787Z,94149.31
2022-10-31T23:14:06.345Z,94139.53
2022-10-31T23:16:33.961Z,94136.00
2022-10-31T23:19:01.560Z,94137.63
2022-10-31T23:21:54.349Z,94129.50
2022-10-31T23:24:24.667Z,94129.50
2022-10-31T23:27:09.672Z,94129.50
2022-10-31T23:29:43.178Z,94125.16
2022-10-31T23:32:13.259Z,94135.19
2022-10-31T23:34:40.832Z,94131.69
2022-10-31T23:39:42.295Z,94134.66
2022-10-31T23:42:10.293Z,94137.38
2022-10-31T23:44:37.907Z,94129.50
2022-10-31T23:47:05.775Z,94127.06
2022-10-31T23:49:33.364Z,94132.22
2022-10-31T23:52:01.094Z,94127.06
2022-10-31T23:54:28.785Z,94120.00
2022-10-31T23:56:58.297Z,94125.44
2022-10-31T23:59:26.287Z,94121.09
